Pagrindinis puslapis
METAR-TAF:

METAR-TAF

Oro uostai :

Wales, Aliaska, Jungtinės Amerikos Valstijos

platuma: 65-37-21N, ilguma: 168-05-42W, Aukštis: 7 m

Dabartinis oras

Ataskaita buvo paskelbta 43 minutes, ne 03:03 UTC
Vėjas 13 kt iš Pietų su gūsio iki 20 kt
Temperatūra -17°C
Drėgmė 84%
Slėgis 1018 hPa
Matomumas: 11.3 km
Giedras dangus
sniegas

METAR: PAIW 290303Z AUTO 18013G20KT 7SM -SN CLR M17/M19 A3005 RMK AO2 P0000 FZRANO

Laikas: 18:46 (03:46 UTC)


TAF: trūkstamas

Orai ataskaitas ir orų prognozės (METAR, TAF).

turimą stotys yra geltonos ir raudonos taškus žemėlapyje.

Perkelti pele per norėdami pamatyti stoties vardą.

Tada spustelėkite, norėdami matyti oro stebėjimo ir prognozės.

Norėdami pakeisti žemėlapį: spustelėkite ant žalios mygtukų su juodo kryžiaus žemyn,; žalią mygtuką su brūkšneliu, jei norite nutolinti; arba žalių rodyklių gretimoms žemėlapius.


METAR-TAF: